Time;durP1;ratioP1;P1;durP2;ratioP2;P2;SDS_P1;SDS_P2;PMS_P1;PMS_P2;Temp;Humidity;BMP_temperature;BMP_pressure;BME280_temperature;BME280_humidity;BME280_pressure;Samples;Min_cycle;Max_cycle;Signal;HPM_P1;HPM_P2
2021/03/08 00:01:27;;;;;;;44.60;24.70;;;;;;;;;;10420670;28;20487;-82
2021/03/08 00:06:29;;;;;;;43.33;24.73;;;;;;;;;;10420145;28;20228;-82
2021/03/08 00:11:31;;;;;;;47.70;25.53;;;;;;;;;;10416358;28;20672;-82
2021/03/08 00:16:33;;;;;;;47.90;25.50;;;;;;;;;;10420724;28;20231;-82
2021/03/08 00:21:36;;;;;;;48.40;25.27;;;;;;;;;;10417341;28;20318;-83
2021/03/08 00:26:38;;;;;;;42.43;24.07;;;;;;;;;;10416499;28;20262;-82
2021/03/08 00:31:48;;;;;;;41.70;23.73;;;;;;;;;;10409197;28;20211;-83
2021/03/08 00:36:51;;;;;;;47.63;24.53;;;;;;;;;;10421334;28;20330;-82
2021/03/08 00:41:53;;;;;;;42.97;23.87;;;;;;;;;;10417388;28;20255;-83
2021/03/08 00:46:55;;;;;;;45.50;25.37;;;;;;;;;;10422796;28;20218;-84
2021/03/08 00:51:58;;;;;;;41.53;23.30;;;;;;;;;;10411893;28;20216;-84
2021/03/08 00:57:01;;;;;;;42.97;24.50;;;;;;;;;;10420083;28;20618;-82
2021/03/08 01:02:09;;;;;;;44.77;23.80;;;;;;;;;;10415236;28;20243;-82
2021/03/08 01:07:12;;;;;;;41.20;23.17;;;;;;;;;;10420034;28;20208;-82
2021/03/08 01:12:14;;;;;;;42.00;23.93;;;;;;;;;;10416680;28;20696;-82
2021/03/08 01:17:17;;;;;;;44.53;23.83;;;;;;;;;;10417832;28;20216;-81
2021/03/08 01:22:20;;;;;;;41.33;22.77;;;;;;;;;;10417456;28;20243;-82
2021/03/08 01:27:22;;;;;;;46.37;24.37;;;;;;;;;;10384735;28;20243;-82
2021/03/08 01:32:32;;;;;;;44.10;25.17;;;;;;;;;;10401874;28;20212;-82
2021/03/08 01:37:35;;;;;;;44.37;24.23;;;;;;;;;;10417086;28;20675;-82
2021/03/08 01:42:38;;;;;;;40.20;23.73;;;;;;;;;;10407317;28;20243;-82
2021/03/08 01:47:40;;;;;;;40.17;24.10;;;;;;;;;;10393958;28;20223;-81
2021/03/08 01:52:43;;;;;;;43.97;24.97;;;;;;;;;;10406796;28;20222;-82
2021/03/08 01:57:45;;;;;;;47.10;24.53;;;;;;;;;;10406574;28;20716;-82
2021/03/08 02:02:56;;;;;;;43.90;25.03;;;;;;;;;;10408194;28;20236;-84
2021/03/08 02:08:00;;;;;;;41.50;23.90;;;;;;;;;;10411663;28;20216;-82
2021/03/08 02:13:25;;;;;;;46.20;24.57;;;;;;;;;;10417161;28;20216;-84
2021/03/08 02:18:32;;;;;;;44.17;24.53;;;;;;;;;;10386321;28;20211;-82
2021/03/08 02:23:52;;;;;;;43.63;24.77;;;;;;;;;;10418162;28;20392;-83
2021/03/08 02:29:16;;;;;;;46.93;25.47;;;;;;;;;;10409337;28;20791;-83
2021/03/08 02:34:22;;;;;;;44.47;24.27;;;;;;;;;;10419249;28;20243;-83
2021/03/08 02:39:26;;;;;;;39.93;24.47;;;;;;;;;;10412471;28;20227;-83
2021/03/08 02:44:29;;;;;;;46.10;25.50;;;;;;;;;;10414701;28;20226;-84
2021/03/08 02:49:34;;;;;;;45.43;25.10;;;;;;;;;;10413149;28;20212;-83
2021/03/08 02:54:37;;;;;;;44.20;24.00;;;;;;;;;;10414735;28;20232;-83
2021/03/08 02:59:42;;;;;;;41.37;24.60;;;;;;;;;;10409934;28;20222;-82
2021/03/08 03:04:47;;;;;;;43.37;25.30;;;;;;;;;;10416395;28;20684;-82
2021/03/08 03:09:49;;;;;;;42.87;25.13;;;;;;;;;;10400952;28;20234;-83
2021/03/08 03:14:52;;;;;;;42.63;24.77;;;;;;;;;;10415135;28;20219;-83
2021/03/08 03:19:57;;;;;;;42.10;24.10;;;;;;;;;;10422577;28;20806;-83
2021/03/08 03:25:00;;;;;;;42.07;24.77;;;;;;;;;;10415391;28;20419;-83
2021/03/08 03:30:04;;;;;;;42.73;24.63;;;;;;;;;;10411419;28;20212;-82
2021/03/08 03:35:09;;;;;;;41.07;24.53;;;;;;;;;;10410596;28;20606;-83
2021/03/08 03:40:13;;;;;;;38.60;23.00;;;;;;;;;;10411401;28;20317;-84
2021/03/08 03:45:16;;;;;;;43.93;23.87;;;;;;;;;;10407609;28;20218;-83
2021/03/08 03:50:20;;;;;;;41.10;24.23;;;;;;;;;;10418785;28;20643;-82
2021/03/08 03:55:23;;;;;;;43.43;24.57;;;;;;;;;;10417033;28;20240;-83
2021/03/08 04:00:25;;;;;;;42.60;23.53;;;;;;;;;;10417304;28;20239;-83
2021/03/08 04:05:29;;;;;;;39.90;23.33;;;;;;;;;;10420364;28;20219;-83
2021/03/08 04:10:32;;;;;;;44.07;24.00;;;;;;;;;;10420698;28;20212;-83
2021/03/08 04:15:34;;;;;;;44.17;24.67;;;;;;;;;;10423690;28;20339;-83
2021/03/08 04:20:38;;;;;;;45.10;24.73;;;;;;;;;;10420821;28;20704;-83
2021/03/08 04:25:40;;;;;;;40.87;23.43;;;;;;;;;;10420686;28;20211;-82
2021/03/08 04:30:43;;;;;;;43.40;24.40;;;;;;;;;;10417069;28;20219;-84
2021/03/08 04:35:47;;;;;;;46.07;24.07;;;;;;;;;;10429955;28;20223;-83
2021/03/08 04:40:50;;;;;;;42.27;23.60;;;;;;;;;;10418874;28;20334;-84
2021/03/08 04:45:54;;;;;;;42.83;24.00;;;;;;;;;;10418233;28;20263;-83
2021/03/08 04:50:57;;;;;;;40.27;23.27;;;;;;;;;;10418909;28;20276;-83
2021/03/08 04:56:01;;;;;;;40.80;22.97;;;;;;;;;;10417604;28;20745;-83
2021/03/08 05:01:03;;;;;;;40.10;22.90;;;;;;;;;;10415049;28;20609;-82
2021/03/08 05:06:07;;;;;;;41.67;23.57;;;;;;;;;;10416515;28;20224;-83
2021/03/08 05:11:11;;;;;;;39.40;22.70;;;;;;;;;;10417792;28;20223;-83
2021/03/08 05:16:17;;;;;;;40.50;23.87;;;;;;;;;;10411470;28;20483;-83
2021/03/08 05:21:20;;;;;;;41.03;23.07;;;;;;;;;;10420114;28;20249;-83
2021/03/08 05:26:22;;;;;;;39.60;22.67;;;;;;;;;;10415479;28;20220;-83
2021/03/08 05:31:28;;;;;;;40.07;22.00;;;;;;;;;;10416153;28;20207;-82
2021/03/08 05:36:33;;;;;;;39.63;22.47;;;;;;;;;;10414380;28;20223;-83
2021/03/08 05:41:38;;;;;;;38.53;22.63;;;;;;;;;;10415717;28;20250;-83
2021/03/08 05:46:43;;;;;;;38.40;21.80;;;;;;;;;;10393783;28;20243;-83
2021/03/08 05:52:01;;;;;;;42.87;22.50;;;;;;;;;;10418154;28;20282;-83
2021/03/08 05:57:14;;;;;;;42.87;22.47;;;;;;;;;;10407189;28;20231;-86
2021/03/08 06:02:30;;;;;;;42.40;23.23;;;;;;;;;;10422000;28;20247;-85
2021/03/08 06:07:46;;;;;;;39.93;22.53;;;;;;;;;;10423037;28;20589;-84
2021/03/08 06:12:50;;;;;;;42.27;24.37;;;;;;;;;;10422347;28;20262;-86
2021/03/08 06:17:53;;;;;;;40.63;23.77;;;;;;;;;;10412875;28;20656;-89
2021/03/08 06:22:56;;;;;;;46.07;24.43;;;;;;;;;;10414069;28;20231;-82
2021/03/08 06:27:59;;;;;;;42.07;24.00;;;;;;;;;;10416511;28;20216;-85
2021/03/08 06:33:01;;;;;;;45.27;23.93;;;;;;;;;;10414542;28;20653;-85
2021/03/08 06:38:03;;;;;;;40.67;23.77;;;;;;;;;;10411567;28;20602;-86
2021/03/08 06:43:06;;;;;;;42.57;24.43;;;;;;;;;;10415481;28;20246;-85
2021/03/08 06:48:09;;;;;;;39.80;23.17;;;;;;;;;;10416848;28;20584;-81
2021/03/08 06:53:11;;;;;;;43.10;23.23;;;;;;;;;;10417948;28;20216;-84
2021/03/08 06:58:18;;;;;;;38.53;24.00;;;;;;;;;;10420012;28;20637;-84
2021/03/08 07:03:32;;;;;;;39.13;23.77;;;;;;;;;;10415307;28;20255;-83
2021/03/08 07:08:34;;;;;;;38.73;22.67;;;;;;;;;;10422957;28;20769;-85
2021/03/08 07:13:37;;;;;;;43.57;23.93;;;;;;;;;;10425409;28;20215;-84
2021/03/08 07:18:40;;;;;;;43.57;24.50;;;;;;;;;;10423284;28;20227;-83
2021/03/08 07:23:43;;;;;;;40.53;22.60;;;;;;;;;;10408065;28;20871;-85
2021/03/08 07:29:05;;;;;;;39.80;23.50;;;;;;;;;;10420704;28;20231;-82
2021/03/08 07:34:09;;;;;;;39.27;22.27;;;;;;;;;;10411816;28;20215;-84
2021/03/08 07:39:12;;;;;;;41.90;22.77;;;;;;;;;;10401921;28;20643;-83
2021/03/08 07:44:15;;;;;;;47.30;22.70;;;;;;;;;;10399713;28;20232;-82
2021/03/08 07:49:17;;;;;;;39.77;23.63;;;;;;;;;;10412721;28;20237;-82
2021/03/08 07:54:20;;;;;;;40.23;22.67;;;;;;;;;;10414225;28;20594;-82
2021/03/08 07:59:22;;;;;;;39.40;22.83;;;;;;;;;;10418234;28;20228;-83
2021/03/08 08:04:25;;;;;;;38.93;21.53;;;;;;;;;;10427094;28;20228;-82
2021/03/08 08:09:28;;;;;;;38.87;21.83;;;;;;;;;;10420622;28;20621;-81
2021/03/08 08:14:34;;;;;;;36.53;21.53;;;;;;;;;;10424828;28;20215;-84
2021/03/08 08:19:39;;;;;;;39.63;21.90;;;;;;;;;;10427503;28;21315;-83
2021/03/08 08:24:42;;;;;;;40.33;21.27;;;;;;;;;;10425154;28;20723;-83
2021/03/08 08:29:46;;;;;;;45.07;20.83;;;;;;;;;;10423829;28;20310;-82
2021/03/08 08:34:49;;;;;;;39.70;20.90;;;;;;;;;;10423622;28;20227;-83
2021/03/08 08:40:06;;;;;;;38.70;20.07;;;;;;;;;;10415162;28;20215;-83
2021/03/08 08:45:22;;;;;;;38.10;20.23;;;;;;;;;;10417563;28;20217;-83
2021/03/08 08:50:25;;;;;;;34.30;21.07;;;;;;;;;;10423057;28;20222;-83
2021/03/08 08:55:41;;;;;;;37.23;20.77;;;;;;;;;;10420458;28;20263;-83
2021/03/08 09:00:44;;;;;;;35.00;20.57;;;;;;;;;;10415914;28;20553;-83
2021/03/08 09:05:46;;;;;;;34.60;19.80;;;;;;;;;;10421255;28;20223;-83
2021/03/08 09:10:49;;;;;;;36.50;20.60;;;;;;;;;;10391092;28;20223;-83
2021/03/08 09:15:51;;;;;;;35.77;19.27;;;;;;;;;;10411686;28;20222;-83
2021/03/08 09:21:14;;;;;;;40.83;19.83;;;;;;;;;;10411997;28;20763;-81
2021/03/08 09:26:16;;;;;;;33.40;19.40;;;;;;;;;;10408667;28;20263;-82
2021/03/08 09:31:22;;;;;;;30.13;18.07;;;;;;;;;;10413896;28;20622;-82
2021/03/08 09:36:25;;;;;;;32.90;18.73;;;;;;;;;;10418002;28;20377;-81
2021/03/08 09:41:28;;;;;;;35.53;19.20;;;;;;;;;;10417957;28;20244;-83
2021/03/08 09:46:31;;;;;;;30.63;17.70;;;;;;;;;;10416955;28;20216;-84
2021/03/08 09:51:34;;;;;;;34.53;18.87;;;;;;;;;;10420487;28;20204;-83
2021/03/08 09:56:36;;;;;;;33.83;19.40;;;;;;;;;;10401563;28;20908;-84
2021/03/08 10:01:37;;;;;;;32.37;18.40;;;;;;;;;;10419590;28;20250;-83
2021/03/08 10:06:41;;;;;;;29.30;16.83;;;;;;;;;;10412161;28;20307;-84
2021/03/08 10:11:43;;;;;;;35.13;17.53;;;;;;;;;;10420381;28;20223;-83
2021/03/08 10:16:45;;;;;;;31.53;17.97;;;;;;;;;;10412479;28;20395;-83
2021/03/08 10:21:48;;;;;;;34.90;17.57;;;;;;;;;;10424268;28;20266;-82
2021/03/08 10:26:51;;;;;;;32.00;17.97;;;;;;;;;;10426544;28;20871;-81
2021/03/08 10:31:53;;;;;;;33.07;18.37;;;;;;;;;;10417226;28;20224;-80
2021/03/08 10:36:56;;;;;;;34.90;18.00;;;;;;;;;;10419601;28;20216;-83
2021/03/08 10:41:58;;;;;;;30.87;17.57;;;;;;;;;;10398171;28;20716;-82
2021/03/08 10:47:00;;;;;;;31.13;17.53;;;;;;;;;;10422132;28;20211;-82
2021/03/08 10:52:10;;;;;;;31.93;16.90;;;;;;;;;;10414540;28;20219;-82
2021/03/08 10:57:12;;;;;;;29.87;16.23;;;;;;;;;;10420087;28;20228;-82
2021/03/08 11:02:16;;;;;;;28.80;16.60;;;;;;;;;;10411711;28;20235;-82
2021/03/08 11:07:29;;;;;;;29.27;16.47;;;;;;;;;;10422455;28;20326;-83
2021/03/08 11:12:31;;;;;;;29.67;15.87;;;;;;;;;;10412522;28;20230;-82
2021/03/08 11:17:34;;;;;;;28.63;16.73;;;;;;;;;;10416798;28;20216;-81
2021/03/08 11:22:51;;;;;;;28.53;15.07;;;;;;;;;;10405454;28;20602;-82
2021/03/08 11:27:53;;;;;;;28.40;15.37;;;;;;;;;;10418548;28;20214;-82
2021/03/08 11:32:55;;;;;;;28.53;16.63;;;;;;;;;;10405389;28;20220;-83
2021/03/08 11:37:59;;;;;;;26.43;15.07;;;;;;;;;;10427746;28;20699;-91
2021/03/08 11:43:02;;;;;;;26.10;14.13;;;;;;;;;;10435982;28;20719;-88
2021/03/08 11:48:04;;;;;;;23.40;13.93;;;;;;;;;;10432659;28;20285;-89
2021/03/08 11:53:07;;;;;;;27.10;14.47;;;;;;;;;;10426888;28;20215;-91
2021/03/08 11:58:09;;;;;;;24.37;14.97;;;;;;;;;;10433499;28;20231;-91
2021/03/08 12:03:11;;;;;;;30.10;14.83;;;;;;;;;;10432207;28;20578;-89
2021/03/08 12:08:15;;;;;;;27.77;15.30;;;;;;;;;;10438406;28;20219;-92
2021/03/08 12:13:17;;;;;;;26.90;14.87;;;;;;;;;;10435167;28;20219;-87
2021/03/08 12:18:18;;;;;;;25.40;14.93;;;;;;;;;;10433596;28;20211;-91
2021/03/08 12:23:21;;;;;;;28.00;15.60;;;;;;;;;;10432948;28;20917;-91
2021/03/08 12:28:27;;;;;;;24.90;15.03;;;;;;;;;;10431820;28;20656;-91
2021/03/08 12:33:47;;;;;;;24.03;13.80;;;;;;;;;;10439024;28;20223;-92
2021/03/08 12:38:50;;;;;;;24.43;13.73;;;;;;;;;;10436967;28;20223;-91
2021/03/08 12:43:52;;;;;;;21.70;12.20;;;;;;;;;;10418973;28;20266;-91
2021/03/08 12:48:53;;;;;;;20.10;11.50;;;;;;;;;;10434313;28;20215;-92
2021/03/08 12:53:56;;;;;;;17.20;11.20;;;;;;;;;;10431777;28;20342;-92
2021/03/08 12:58:58;;;;;;;20.30;11.43;;;;;;;;;;10429199;28;20212;-88
2021/03/08 13:04:00;;;;;;;21.07;11.73;;;;;;;;;;10435022;28;20696;-88
2021/03/08 13:09:03;;;;;;;18.47;10.83;;;;;;;;;;10435700;28;20246;-88
2021/03/08 13:14:05;;;;;;;21.93;11.70;;;;;;;;;;10435321;28;20215;-88
2021/03/08 13:19:07;;;;;;;17.07;10.90;;;;;;;;;;10426293;28;20231;-90
2021/03/08 13:24:09;;;;;;;22.33;12.87;;;;;;;;;;10438731;28;20231;-90
2021/03/08 13:29:11;;;;;;;22.77;11.47;;;;;;;;;;10430954;28;20223;-90
2021/03/08 13:34:13;;;;;;;19.00;11.00;;;;;;;;;;10435376;28;21270;-91
2021/03/08 13:39:16;;;;;;;24.67;11.93;;;;;;;;;;10428163;28;20222;-92
2021/03/08 13:44:18;;;;;;;21.37;12.23;;;;;;;;;;10439486;28;20238;-89
2021/03/08 13:49:20;;;;;;;23.40;12.00;;;;;;;;;;10428251;28;20222;-91
2021/03/08 13:54:23;;;;;;;22.87;11.60;;;;;;;;;;10424612;28;20258;-88
2021/03/08 13:59:25;;;;;;;22.97;12.30;;;;;;;;;;10431588;28;20218;-88
2021/03/08 14:04:27;;;;;;;21.87;12.03;;;;;;;;;;10430298;28;20252;-91
2021/03/08 14:09:29;;;;;;;19.70;11.77;;;;;;;;;;10437301;28;20675;-90
2021/03/08 14:14:32;;;;;;;20.57;11.70;;;;;;;;;;10420409;28;20221;-90
2021/03/08 14:19:48;;;;;;;22.67;11.20;;;;;;;;;;10433048;28;20720;-91
2021/03/08 14:24:51;;;;;;;18.87;11.03;;;;;;;;;;10417799;28;20315;-88
2021/03/08 14:29:53;;;;;;;22.70;13.40;;;;;;;;;;10432957;28;20235;-87
2021/03/08 14:34:55;;;;;;;20.47;11.80;;;;;;;;;;10427066;28;20251;-88
2021/03/08 14:39:59;;;;;;;19.67;11.77;;;;;;;;;;10432472;28;20212;-91
2021/03/08 14:45:06;;;;;;;19.30;11.40;;;;;;;;;;10428803;28;20627;-80
2021/03/08 14:50:09;;;;;;;23.13;13.17;;;;;;;;;;10421504;28;20298;-81
2021/03/08 14:55:12;;;;;;;21.57;12.23;;;;;;;;;;10419822;28;20712;-81
2021/03/08 15:00:15;;;;;;;24.67;13.87;;;;;;;;;;10413183;28;20212;-82
2021/03/08 15:05:17;;;;;;;29.60;14.03;;;;;;;;;;10415201;28;20228;-82
2021/03/08 15:10:20;;;;;;;24.00;13.00;;;;;;;;;;10413309;28;20212;-80
2021/03/08 15:15:22;;;;;;;23.50;13.47;;;;;;;;;;10416243;28;20226;-82
2021/03/08 15:20:24;;;;;;;24.80;14.23;;;;;;;;;;10412668;28;20219;-82
2021/03/08 15:25:27;;;;;;;23.27;13.37;;;;;;;;;;10423288;28;20234;-82
2021/03/08 15:30:29;;;;;;;24.70;13.60;;;;;;;;;;10414136;28;20218;-82
2021/03/08 15:35:31;;;;;;;24.70;14.00;;;;;;;;;;10418469;28;20227;-82
2021/03/08 15:40:34;;;;;;;21.73;13.43;;;;;;;;;;10410724;28;20217;-82
2021/03/08 15:45:36;;;;;;;25.13;13.93;;;;;;;;;;10421836;28;20239;-82
2021/03/08 15:50:37;;;;;;;24.57;14.23;;;;;;;;;;10409439;28;20216;-82
2021/03/08 15:55:40;;;;;;;24.63;14.10;;;;;;;;;;10416207;28;20252;-81
2021/03/08 16:00:42;;;;;;;28.50;13.33;;;;;;;;;;10419614;28;20219;-88
2021/03/08 16:05:49;;;;;;;25.80;15.10;;;;;;;;;;10425237;28;20235;-82
2021/03/08 18:01:04;;;;;;;26.60;13.93;;;;;;;;;;10455071;28;20242;-87
2021/03/08 18:06:06;;;;;;;28.17;14.83;;;;;;;;;;10428889;28;20239;-91
2021/03/08 18:11:08;;;;;;;26.77;15.03;;;;;;;;;;10427116;28;20243;-88
2021/03/08 18:16:12;;;;;;;26.90;15.30;;;;;;;;;;10428551;28;20218;-92
2021/03/08 18:21:14;;;;;;;29.43;14.40;;;;;;;;;;10432247;28;20212;-91
2021/03/08 18:26:16;;;;;;;28.07;14.27;;;;;;;;;;10426077;28;20216;-85
2021/03/08 18:31:19;;;;;;;28.50;15.17;;;;;;;;;;10432148;28;20211;-86
2021/03/08 18:36:22;;;;;;;27.63;15.13;;;;;;;;;;10425272;28;20222;-87
2021/03/08 18:41:26;;;;;;;27.47;15.33;;;;;;;;;;10432054;28;20262;-89
2021/03/08 18:46:29;;;;;;;27.37;14.50;;;;;;;;;;10417348;28;20227;-84
2021/03/08 18:51:31;;;;;;;28.63;15.27;;;;;;;;;;10424351;28;20219;-87
2021/03/08 18:56:38;;;;;;;26.30;13.90;;;;;;;;;;10420964;28;20262;-89
2021/03/08 19:01:41;;;;;;;26.57;13.80;;;;;;;;;;10421429;28;20274;-87
2021/03/08 19:06:43;;;;;;;25.03;14.43;;;;;;;;;;10420510;28;20220;-87
2021/03/08 19:11:45;;;;;;;24.83;12.87;;;;;;;;;;10415624;28;20593;-88
2021/03/08 19:16:48;;;;;;;25.13;12.63;;;;;;;;;;10416433;28;20246;-87
2021/03/08 19:21:51;;;;;;;23.13;13.00;;;;;;;;;;10413868;28;20242;-88
2021/03/08 19:26:53;;;;;;;22.13;12.73;;;;;;;;;;10417979;28;20264;-86
2021/03/08 19:31:58;;;;;;;24.57;13.77;;;;;;;;;;10413553;28;20207;-88
2021/03/08 19:37:00;;;;;;;26.60;14.30;;;;;;;;;;10416280;28;20215;-86
2021/03/08 19:42:02;;;;;;;23.20;13.43;;;;;;;;;;10406173;28;20523;-87
2021/03/08 19:47:06;;;;;;;27.27;14.50;;;;;;;;;;10412441;28;20225;-89
2021/03/08 19:52:08;;;;;;;27.67;15.90;;;;;;;;;;10417193;28;20222;-87
2021/03/08 19:57:10;;;;;;;27.77;16.03;;;;;;;;;;10418333;28;20242;-87
2021/03/08 20:02:13;;;;;;;29.33;15.60;;;;;;;;;;10419611;28;20244;-86
2021/03/08 20:07:15;;;;;;;25.30;13.33;;;;;;;;;;10424765;28;20677;-87
2021/03/08 20:12:17;;;;;;;21.87;12.07;;;;;;;;;;10420486;28;20215;-88
2021/03/08 20:17:20;;;;;;;20.03;11.23;;;;;;;;;;10422193;28;20222;-88
2021/03/08 20:22:22;;;;;;;20.90;11.50;;;;;;;;;;10422711;28;20334;-88
2021/03/08 20:27:24;;;;;;;17.10;9.50;;;;;;;;;;10429825;28;20218;-88
2021/03/08 20:32:27;;;;;;;16.13;9.47;;;;;;;;;;10419081;28;20705;-88
2021/03/08 20:37:29;;;;;;;19.90;9.80;;;;;;;;;;10419815;28;20243;-88
2021/03/08 20:42:32;;;;;;;16.13;9.17;;;;;;;;;;10419507;28;20753;-85
2021/03/08 20:47:35;;;;;;;13.20;8.13;;;;;;;;;;10425162;28;20215;-88
2021/03/08 20:52:37;;;;;;;14.20;7.70;;;;;;;;;;10420976;28;20300;-86
2021/03/08 20:57:40;;;;;;;10.53;6.07;;;;;;;;;;10423465;28;20617;-88
2021/03/08 21:02:43;;;;;;;10.23;6.23;;;;;;;;;;10429629;28;20239;-85
2021/03/08 21:07:45;;;;;;;10.27;6.10;;;;;;;;;;10421918;28;20222;-87
2021/03/08 21:12:48;;;;;;;12.00;7.03;;;;;;;;;;10426168;28;20308;-86
2021/03/08 21:17:53;;;;;;;15.00;6.97;;;;;;;;;;10430993;28;20250;-85
2021/03/08 21:22:56;;;;;;;12.00;7.40;;;;;;;;;;10435637;28;20253;-85
2021/03/08 21:27:58;;;;;;;14.50;7.80;;;;;;;;;;10441039;28;20654;-86
2021/03/08 21:33:01;;;;;;;13.30;8.10;;;;;;;;;;10430613;28;20397;-86
2021/03/08 21:38:04;;;;;;;14.20;8.80;;;;;;;;;;10427242;28;20223;-87
2021/03/08 21:43:06;;;;;;;17.50;9.97;;;;;;;;;;10428887;28;20240;-86
2021/03/08 21:48:17;;;;;;;17.77;10.47;;;;;;;;;;10429372;28;20374;-86
2021/03/08 21:53:19;;;;;;;19.93;11.43;;;;;;;;;;10435821;28;20211;-86
2021/03/08 21:58:21;;;;;;;24.93;13.27;;;;;;;;;;10433953;28;20236;-86
2021/03/08 22:03:24;;;;;;;24.07;12.93;;;;;;;;;;10428535;28;20232;-85
2021/03/08 22:08:26;;;;;;;26.77;13.53;;;;;;;;;;10417259;28;20218;-86
2021/03/08 22:13:29;;;;;;;23.33;11.90;;;;;;;;;;10430308;28;20212;-86
2021/03/08 22:18:39;;;;;;;21.83;12.33;;;;;;;;;;10431690;28;20230;-88
2021/03/08 22:23:41;;;;;;;20.93;11.60;;;;;;;;;;10434842;28;20814;-89
2021/03/08 22:28:43;;;;;;;21.23;12.40;;;;;;;;;;10428700;28;20246;-87
2021/03/08 22:33:46;;;;;;;23.47;13.13;;;;;;;;;;10431305;28;20216;-88
2021/03/08 22:38:48;;;;;;;24.40;13.97;;;;;;;;;;10432112;28;20242;-87
2021/03/08 22:43:50;;;;;;;28.97;15.33;;;;;;;;;;10424310;28;20737;-87
2021/03/08 22:49:04;;;;;;;27.53;15.37;;;;;;;;;;10430580;28;20698;-87
2021/03/08 22:54:07;;;;;;;25.77;15.10;;;;;;;;;;10426150;28;20857;-86
2021/03/08 22:59:09;;;;;;;23.53;14.60;;;;;;;;;;10424424;28;20303;-86
2021/03/08 23:04:12;;;;;;;23.07;13.10;;;;;;;;;;10429357;28;20231;-87
2021/03/08 23:09:14;;;;;;;23.60;12.23;;;;;;;;;;10417308;28;20212;-89
2021/03/08 23:14:16;;;;;;;23.40;12.77;;;;;;;;;;10432335;28;20215;-88
2021/03/08 23:19:24;;;;;;;24.60;12.63;;;;;;;;;;10429400;28;20324;-87
2021/03/08 23:24:26;;;;;;;22.77;12.40;;;;;;;;;;10411243;28;20709;-85
2021/03/08 23:29:28;;;;;;;20.87;12.13;;;;;;;;;;10400995;28;20212;-88
2021/03/08 23:34:32;;;;;;;23.80;12.60;;;;;;;;;;10433701;28;20243;-87
2021/03/08 23:39:36;;;;;;;19.83;11.63;;;;;;;;;;10432677;28;20632;-88
2021/03/08 23:44:38;;;;;;;19.03;10.33;;;;;;;;;;10435129;28;20246;-87
2021/03/08 23:49:46;;;;;;;14.67;8.50;;;;;;;;;;10434266;28;20623;-87
2021/03/08 23:54:48;;;;;;;12.33;7.67;;;;;;;;;;10427780;28;20231;-87
2021/03/08 23:59:50;;;;;;;13.83;7.87;;;;;;;;;;10427014;28;20240;-86
